createdAt,value
2022-12-03T00:00:06.164Z,1.61
2022-12-03T00:16:05.054Z,1.67
2022-12-03T00:31:02.497Z,1.67
2022-12-03T00:46:04.705Z,1.67
2022-12-03T01:00:01.860Z,1.67
2022-12-03T01:16:04.361Z,1.67
2022-12-03T01:31:01.663Z,1.67
2022-12-03T01:46:03.969Z,1.67
2022-12-03T02:00:01.008Z,1.72
2022-12-03T02:16:03.527Z,1.72
2022-12-03T02:31:00.746Z,1.72
2022-12-03T02:46:03.229Z,1.78
2022-12-03T03:00:05.262Z,1.78
2022-12-03T03:16:02.562Z,1.78
2022-12-03T03:31:04.889Z,1.78
2022-12-03T03:46:02.428Z,1.78
2022-12-03T04:00:04.636Z,1.78
2022-12-03T04:16:02.048Z,1.72
2022-12-03T04:31:04.434Z,1.72
2022-12-03T04:46:01.719Z,1.78
2022-12-03T05:00:03.857Z,1.78
2022-12-03T05:16:03.476Z,1.72
2022-12-03T05:31:03.547Z,1.72
2022-12-03T05:46:00.879Z,1.72
2022-12-03T06:00:02.995Z,1.78
2022-12-03T06:16:05.451Z,1.78
2022-12-03T06:31:02.713Z,1.78
2022-12-03T06:46:06.548Z,1.78
2022-12-03T07:00:02.087Z,1.78
2022-12-03T07:16:04.425Z,1.78
2022-12-03T07:31:01.699Z,1.83
2022-12-03T07:46:04.778Z,1.89
2022-12-03T08:00:00.819Z,1.89
2022-12-03T08:16:02.513Z,1.94
2022-12-03T08:31:04.633Z,2
2022-12-03T08:46:01.572Z,2.06
2022-12-03T09:00:02.837Z,2.06
2022-12-03T09:16:04.294Z,2.11
2022-12-03T09:31:01.223Z,2.17
2022-12-03T09:46:03.787Z,2.22
2022-12-03T10:00:05.346Z,2.44
2022-12-03T10:16:02.509Z,2.61
2022-12-03T10:31:04.660Z,2.67
2022-12-03T10:46:04.039Z,2.78
2022-12-03T11:00:03.536Z,3
2022-12-03T11:16:01.014Z,3.11
2022-12-03T11:31:03.098Z,3.22
2022-12-03T11:46:05.326Z,3.22
2022-12-03T12:00:02.317Z,3.28
2022-12-03T12:16:04.585Z,3.33
2022-12-03T12:31:01.739Z,3.22
2022-12-03T12:46:24.867Z,3.22
2022-12-03T13:00:00.870Z,3.28
2022-12-03T13:16:03.850Z,3.22
2022-12-03T13:31:00.480Z,3.33
2022-12-03T13:46:02.538Z,3.33
2022-12-03T14:00:00.769Z,3.44
2022-12-03T14:16:01.856Z,3.33
2022-12-03T14:31:04.150Z,3.39
2022-12-03T14:46:01.275Z,3.44
2022-12-03T15:00:03.165Z,3.44
2022-12-03T15:16:00.456Z,3.39
2022-12-03T15:31:13.635Z,3.33
2022-12-03T15:46:04.654Z,3.28
2022-12-03T16:00:01.670Z,3.28
2022-12-03T16:16:04.055Z,3.28
2022-12-03T16:31:01.158Z,3.28
2022-12-03T16:46:03.239Z,3.22
2022-12-03T17:00:05.281Z,3.22
2022-12-03T17:16:02.475Z,3.17
2022-12-03T17:31:04.783Z,3.17
2022-12-03T17:46:01.938Z,3.11
2022-12-03T18:00:03.998Z,3.06
2022-12-03T18:16:01.309Z,3
2022-12-03T18:31:00.856Z,2.89
2022-12-03T18:46:00.667Z,2.89
2022-12-03T19:00:02.748Z,2.83
2022-12-03T19:16:05.170Z,2.83
2022-12-03T19:31:02.341Z,2.78
2022-12-03T19:46:04.543Z,2.72
2022-12-03T20:00:01.453Z,2.72
2022-12-03T20:16:03.828Z,2.67
2022-12-03T20:31:00.773Z,2.67
2022-12-03T20:46:03.111Z,2.56
2022-12-03T21:00:04.944Z,2.56
2022-12-03T21:16:02.006Z,2.44
2022-12-03T21:31:04.275Z,2.44
2022-12-03T21:46:01.379Z,2.44
2022-12-03T22:00:03.450Z,2.44
2022-12-03T22:16:00.709Z,2.39
2022-12-03T22:31:03.015Z,2.33
2022-12-03T22:46:05.051Z,2.33
2022-12-03T23:00:02.061Z,2.39
2022-12-03T23:16:04.264Z,2.39
2022-12-03T23:31:01.430Z,2.39
2022-12-03T23:46:03.631Z,2.44
